Facebook Twitter

Wetterstation Murau

aktuelles Wetter
  Temperatur Wetter Niederschlag Luftdruck Wind
Sa, 12:00 Uhr 10° - 0 mm 1025.9 hPa 4 km/h SO
Sa, 11:00 Uhr 6° - 0 mm 1027.5 hPa 0 km/h SO
Sa, 10:00 Uhr 3° - 0 mm 1029 hPa 4 km/h W
Sa, 09:00 Uhr 0° - 0 mm 1029.5 hPa 0 km/h W
Sa, 08:00 Uhr -1° - 0 mm 1028.9 hPa 4 km/h NW
Sa, 07:00 Uhr 0° - 0 mm 1028.1 hPa 4 km/h W
Sa, 06:00 Uhr 0° - 0 mm 1027.5 hPa 0 km/h W
Sa, 05:00 Uhr 1° - 0 mm 1026.4 hPa 4 km/h W
Sa, 04:00 Uhr 1° - 0 mm 1025.8 hPa 4 km/h W
Sa, 03:00 Uhr 2° - 0 mm 1025.2 hPa 4 km/h W
Sa, 02:00 Uhr 2° - 0 mm 1024.9 hPa 4 km/h N
Sa, 01:00 Uhr 3° - 0 mm 1024.3 hPa 4 km/h NW
Sa, 00:00 Uhr 4° - 0 mm 1023.5 hPa 4 km/h W
Fr, 23:00 Uhr 5° - 0 mm 1022.8 hPa 4 km/h W
Fr, 22:00 Uhr 6° - 0 mm 1021.7 hPa 4 km/h W
Fr, 21:00 Uhr 7° - 0 mm 1020.3 hPa 7 km/h NW
Fr, 20:00 Uhr 9° - 0 mm 1019 hPa 4 km/h NW
Fr, 19:00 Uhr 10° - 0 mm 1017.3 hPa 4 km/h NW
Fr, 18:00 Uhr 11° - 0 mm 1015.8 hPa 4 km/h NW
Fr, 17:00 Uhr 13° - 0 mm 1014.6 hPa 7 km/h O

Alle Zeitangaben MESZ